Aviation Digital Data Service (ADDS)

Output produced by METARs form (2000 UTC 19 October 2017)
found at http://www.aviationweather.gov/adds/metars/
 
KMEI 191958Z 04004KT 10SM CLR 27/14 A3018 RMK AO2 SLP219 T02720139
KMEI 191858Z 10005KT 10SM CLR 26/14 A3020 RMK AO2 SLP225 T02610144
KMEI 191758Z 14004KT 10SM CLR 26/15 A3024 RMK AO2 SLP238 T02560150 10256 20078 58012
KMEI 191658Z VRB04KT 10SM CLR 24/14 A3027 RMK AO2 SLP247 T02390144
KMEI 191558Z 13004KT 10SM CLR 22/13 A3028 RMK AO2 SLP251 T02220133
KMEI 191458Z 00000KT 10SM CLR 19/12 A3028 RMK AO2 SLP251 T01890117 51013
KMEI 191358Z 36003KT 10SM CLR 14/12 A3027 RMK AO2 SLP250 T01440117
KMEI 191258Z 32003KT 10SM CLR 10/09 A3025 RMK AO2 SLP243 T01000094
KMEI 191158Z 35003KT 10SM CLR 08/07 A3024 RMK AO2 SLP239 T00830072 10094 20078 51014
KMEI 191058Z 00000KT 10SM CLR 08/08 A3023 RMK AO2 SLP234 T00830078
KMEI 190958Z AUTO 00000KT 10SM CLR 08/08 A3021 RMK AO2 SLP227 T00830078
KMEI 190858Z AUTO 32003KT 10SM CLR 08/08 A3020 RMK AO2 SLP223 T00830078 58003
KMEI 190758Z AUTO 00000KT 10SM CLR 08/08 A3020 RMK AO2 SLP225 T00830078
KMEI 190658Z AUTO 00000KT 10SM CLR 09/08 A3021 RMK AO2 SLP227 T00890083
KMEI 190558Z AUTO 00000KT 10SM CLR 09/08 A3021 RMK AO2 SLP227 T00940083 10150 20089 402440067 58010
KMEI 190458Z AUTO 00000KT 10SM CLR 10/09 A3023 RMK AO2 SLP234 T01000089
KMEI 190358Z AUTO 00000KT 10SM CLR 11/09 A3024 RMK AO2 SLP237 T01060094
KMEI 190258Z AUTO 00000KT 10SM CLR 11/11 A3024 RMK AO2 SLP237 T01110106 51012
KMEI 190158Z 00000KT 10SM CLR 12/11 A3024 RMK AO2 SLP236 T01220111
KMEI 190058Z 00000KT 10SM CLR 13/12 A3023 RMK AO2 SLP235 T01330122
KMEI 182358Z 00000KT 10SM CLR 16/12 A3020 RMK AO2 SLP226 T01560122 10244 20156 53007
KMEI 182258Z 12005KT 10SM CLR 22/08 A3019 RMK AO2 SLP220 T02170083
KMEI 182158Z 11007KT 10SM CLR 23/08 A3018 RMK AO2 SLP219 T02330083
KMEI 182058Z 08003KT 10SM CLR 24/07 A3018 RMK AO2 SLP218 T02440072 56023
KMEI 181958Z 07007KT 10SM CLR 24/07 A3020 RMK AO2 SLP223 T02440067
KMEI 181858Z VRB03KT 10SM CLR 23/08 A3022 RMK AO2 SLP230 T02330078
KMEI 181758Z VRB06KT 10SM CLR 22/08 A3025 RMK AO2 SLP241 T02220078 10222 20072 58013
KMEI 181658Z 10005G18KT 10SM CLR 21/07 A3028 RMK AO2 SLP251 T02060072
KMEI 181558Z 11010KT 10SM CLR 20/07 A3029 RMK AO2 SLP254 T02000072
KMEI 181458Z 12008KT 10SM CLR 18/08 A3029 RMK AO2 SLP254 T01780083 53012
KMEI 181358Z 12005KT 10SM CLR 16/09 A3027 RMK AO2 SLP250 T01560094
KMEI 181258Z 00000KT 10SM CLR 11/09 A3026 RMK AO2 SLP246 T01110089
KMEI 181158Z 30004KT 10SM CLR 07/07 A3025 RMK AO2 SLP244 T00720067 10094 20067 53008
KMEI 181058Z 00000KT 10SM CLR 08/07 A3024 RMK AO2 SLP239 T00780072
KMEI 180958Z AUTO 36004KT 10SM CLR 08/08 A3024 RMK AO2 SLP237 T00830078
KMEI 180858Z AUTO 35004KT 10SM CLR 08/08 A3023 RMK AO2 SLP234 T00830078 53002
KMEI 180758Z AUTO 35003KT 10SM CLR 08/08 A3023 RMK AO2 SLP233 T00830078
KMEI 180658Z AUTO 00000KT 10SM CLR 09/08 A3022 RMK AO2 SLP231 T00890083
KMEI 180558Z AUTO 00000KT 10SM CLR 09/09 A3022 RMK AO2 SLP232 T00940089 10183 20094 402440094 58003
KMEI 180458Z AUTO 00000KT 10SM CLR 10/09 A3023 RMK AO2 SLP234 T01000094
KMEI 180358Z AUTO 00000KT 10SM CLR 11/10 A3024 RMK AO2 SLP236 T01060100
KMEI 180258Z AUTO 00000KT 10SM CLR 12/11 A3023 RMK AO2 SLP235 T01170106 51013
KMEI 180158Z 00000KT 10SM CLR 12/11 A3022 RMK AO2 SLP233 T01220111
KMEI 180058Z 00000KT 10SM CLR 13/12 A3021 RMK AO2 SLP229 T01330117
KMEI 172358Z 09003KT 10SM CLR 18/09 A3019 RMK AO2 SLP222 T01830094 10244 20183 53001
KMEI 172258Z 08007KT 10SM CLR 22/08 A3019 RMK AO2 SLP221 T02170083
KMEI 172158Z 06008KT 10SM CLR 23/08 A3018 RMK AO2 SLP219 T02330078
KMEI 172058Z 03005KT 10SM CLR 24/09 A3019 RMK AO2 SLP222 T02390089 56019
KMEI 171958Z 02009KT 10SM CLR 24/09 A3019 RMK AO2 SLP222 T02390094
KMEI 171858Z 01010KT 10SM CLR 23/11 A3021 RMK AO2 SLP229 T02330106
KMEI 171758Z 05007KT 010V080 10SM CLR 22/10 A3025 RMK AO2 SLP240 T02220100 10222 20100 58014
KMEI 171658Z 04009KT 10SM CLR 21/09 A3027 RMK AO2 SLP250 T02110094
KMEI 171558Z 11009KT 10SM CLR 19/09 A3028 RMK AO2 SLP252 T01940094
KMEI 171458Z 08008G17KT 10SM CLR 17/08 A3029 RMK AO2 SLP254 T01670083 50011
KMEI 171358Z 05007KT 10SM CLR 14/09 A3029 RMK AO2 SLP255 T01390089
KMEI 171258Z 03008KT 10SM CLR 12/08 A3028 RMK AO2 SLP251 T01170083
KMEI 171158Z 03006KT 10SM CLR 11/08 A3026 RMK AO2 SLP244 T01060078 10122 20094 53016
KMEI 171058Z 04007KT 10SM CLR 11/08 A3024 RMK AO2 SLP237 T01060078
KMEI 170958Z AUTO 00000KT 10SM CLR 09/08 A3022 RMK AO2 SLP232 T00940078
KMEI 170858Z AUTO 34006KT 10SM CLR 09/08 A3021 RMK AO2 SLP227 T00940078 58004
KMEI 170758Z AUTO 05006KT 10SM CLR 11/08 A3021 RMK AO2 SLP229 T01110078
KMEI 170658Z AUTO 04007KT 10SM CLR 12/08 A3022 RMK AO2 SLP230 T01170083
KMEI 170558Z AUTO 33004KT 10SM CLR 11/08 A3022 RMK AO2 SLP231 T01060083 10161 20106 402280106 58004
KMEI 170458Z AUTO 35005KT 10SM CLR 12/09 A3023 RMK AO2 SLP234 T01170089
KMEI 170358Z AUTO 35008KT 10SM CLR 13/09 A3023 RMK AO2 SLP235 T01280089
KMEI 170258Z AUTO 36008KT 10SM CLR 13/09 A3023 RMK AO2 SLP234 T01330089 51017
KMEI 170158Z AUTO 36008KT 10SM CLR 14/09 A3022 RMK AO2 SLP231 T01390089
KMEI 170058Z AUTO 36008KT 10SM CLR 14/09 A3021 RMK AO2 SLP227 T01440094
KMEI 162358Z AUTO 36006KT 10SM CLR 16/09 A3018 RMK AO2 SLP218 T01610094 10228 20161 53015
KMEI 162258Z AUTO 36008KT 10SM CLR 19/09 A3016 RMK AO2 SLP212 T01940089
KMEI 162158Z AUTO 36013KT 10SM CLR 21/08 A3014 RMK AO2 SLP205 T02110083
KMEI 162058Z 36011G18KT 10SM CLR 23/09 A3014 RMK AO2 SLP202 T02280089 56020